createdAt,value
2022-09-29T00:02:29.098Z,5.18
2022-09-29T00:05:10.712Z,5.07
2022-09-29T00:07:37.306Z,5.08
2022-09-29T00:10:05.084Z,5.01
2022-09-29T00:12:31.690Z,4.99
2022-09-29T00:14:58.260Z,4.96
2022-09-29T00:17:31.084Z,4.95
2022-09-29T00:20:03.832Z,4.85
2022-09-29T00:22:33.507Z,4.82
2022-09-29T00:25:16.553Z,4.82
2022-09-29T00:27:49.244Z,4.81
2022-09-29T00:30:17.319Z,4.78
2022-09-29T00:32:43.843Z,4.75
2022-09-29T00:35:10.818Z,4.76
2022-09-29T00:37:37.733Z,4.77
2022-09-29T00:40:11.848Z,4.75
2022-09-29T00:42:41.559Z,4.64
2022-09-29T00:45:32.350Z,4.66
2022-09-29T00:48:16.543Z,4.71
2022-09-29T00:50:58.506Z,4.72
2022-09-29T00:53:29.235Z,4.73
2022-09-29T00:56:01.994Z,4.74
2022-09-29T00:58:37.602Z,4.76
2022-09-29T01:01:05.323Z,4.76
2022-09-29T01:03:43.824Z,4.76
2022-09-29T01:06:32.497Z,4.77
2022-09-29T01:09:06.982Z,4.77
2022-09-29T01:11:36.521Z,4.80
2022-09-29T01:16:52.851Z,4.80
2022-09-29T01:19:30.178Z,4.80
2022-09-29T01:22:02.339Z,4.78
2022-09-29T01:25:06.129Z,4.80
2022-09-29T01:28:02.576Z,4.80
2022-09-29T01:30:41.315Z,4.80
2022-09-29T01:33:32.679Z,4.81
2022-09-29T01:39:33.551Z,4.80
2022-09-29T01:42:04.582Z,4.80
2022-09-29T01:44:41.234Z,4.80
2022-09-29T01:47:23.502Z,4.78
2022-09-29T01:50:05.434Z,4.77
2022-09-29T01:52:49.222Z,4.75
2022-09-29T01:55:46.014Z,4.74
2022-09-29T01:58:23.373Z,4.69
2022-09-29T02:00:57.490Z,4.64
2022-09-29T02:03:54.147Z,4.53
2022-09-29T02:06:27.020Z,4.58
2022-09-29T02:08:56.302Z,4.65
2022-09-29T02:11:23.437Z,4.67
2022-09-29T02:14:29.204Z,4.67
2022-09-29T02:17:21.365Z,4.68
2022-09-29T02:20:01.878Z,4.68
2022-09-29T02:22:35.728Z,4.67
2022-09-29T02:25:07.319Z,4.62
2022-09-29T02:28:01.216Z,4.66
2022-09-29T02:30:28.074Z,4.68
2022-09-29T02:32:54.617Z,4.68
2022-09-29T02:35:22.142Z,4.70
2022-09-29T02:38:17.711Z,4.71
2022-09-29T02:41:28.796Z,4.70
2022-09-29T02:44:41.027Z,4.72
2022-09-29T02:47:58.808Z,4.67
2022-09-29T02:50:43.314Z,4.68
2022-09-29T02:53:48.807Z,4.72
2022-09-29T02:56:33.758Z,4.70
2022-09-29T02:59:21.975Z,4.69
2022-09-29T03:01:59.947Z,4.69
2022-09-29T03:04:45.370Z,4.68
2022-09-29T03:07:27.816Z,4.55
2022-09-29T03:10:00.639Z,4.61
2022-09-29T03:12:32.671Z,4.60
2022-09-29T03:14:59.218Z,4.63
2022-09-29T03:17:25.740Z,4.68
2022-09-29T03:19:52.422Z,4.72
2022-09-29T03:22:19.216Z,4.77
2022-09-29T03:24:45.985Z,4.77
2022-09-29T03:27:13.054Z,4.78
2022-09-29T03:29:39.991Z,4.79
2022-09-29T03:32:07.301Z,4.78
2022-09-29T03:34:34.340Z,4.80
2022-09-29T03:37:01.219Z,4.81
2022-09-29T03:39:28.629Z,4.82
2022-09-29T03:41:55.548Z,4.81
2022-09-29T03:44:22.108Z,4.77
2022-09-29T03:46:48.644Z,4.81
2022-09-29T03:49:15.758Z,4.81
2022-09-29T03:51:42.838Z,4.84
2022-09-29T03:54:10.019Z,4.84
2022-09-29T03:56:37.576Z,4.83
2022-09-29T03:59:08.388Z,4.82
2022-09-29T04:01:35.695Z,4.77
2022-09-29T04:04:02.455Z,4.76
2022-09-29T04:06:29.000Z,4.75
2022-09-29T04:08:55.622Z,4.77
2022-09-29T04:11:22.450Z,4.75
2022-09-29T04:13:49.329Z,4.68
2022-09-29T04:16:15.960Z,4.75
2022-09-29T04:18:42.574Z,4.75
2022-09-29T04:21:09.355Z,4.77
2022-09-29T04:23:36.536Z,4.77
2022-09-29T04:26:04.478Z,4.80
2022-09-29T04:28:32.782Z,4.82
2022-09-29T04:30:59.403Z,4.86
2022-09-29T04:33:26.066Z,4.88
2022-09-29T04:35:52.641Z,4.83
2022-09-29T04:38:19.192Z,4.83
2022-09-29T04:40:45.870Z,4.82
2022-09-29T04:43:12.457Z,4.81
2022-09-29T04:45:39.068Z,4.78
2022-09-29T04:48:05.692Z,4.80
2022-09-29T04:50:32.344Z,4.80
2022-09-29T04:52:59.236Z,4.81
2022-09-29T04:55:26.615Z,4.76
2022-09-29T04:57:53.459Z,4.77
2022-09-29T05:00:20.535Z,4.74
2022-09-29T05:02:49.799Z,4.81
2022-09-29T05:05:16.857Z,4.85
2022-09-29T05:07:44.525Z,4.90
2022-09-29T05:10:11.212Z,4.94
2022-09-29T05:12:37.911Z,4.93
2022-09-29T05:15:06.276Z,4.89
2022-09-29T05:17:33.631Z,4.76
2022-09-29T05:20:00.248Z,4.75
2022-09-29T05:22:26.917Z,4.78
2022-09-29T05:24:56.562Z,4.82
2022-09-29T05:27:23.293Z,4.88
2022-09-29T05:29:49.895Z,4.93
2022-09-29T05:32:17.107Z,4.96
2022-09-29T05:34:43.751Z,5.02
2022-09-29T05:37:10.441Z,4.96
2022-09-29T05:39:37.719Z,4.91
2022-09-29T05:42:06.478Z,4.84
2022-09-29T05:44:36.359Z,4.83
2022-09-29T05:47:03.241Z,4.84
2022-09-29T05:49:32.007Z,4.90
2022-09-29T05:51:59.661Z,5.00
2022-09-29T05:54:27.591Z,5.04
2022-09-29T05:56:54.533Z,4.99
2022-09-29T05:59:21.195Z,5.01
2022-09-29T06:01:48.022Z,5.04
2022-09-29T06:04:14.866Z,5.06
2022-09-29T06:06:41.402Z,5.09
2022-09-29T06:09:08.029Z,5.17
2022-09-29T06:11:34.646Z,5.23
2022-09-29T06:14:02.618Z,5.33
2022-09-29T06:16:32.074Z,5.35
2022-09-29T06:19:00.944Z,5.44
2022-09-29T06:21:30.133Z,5.51
2022-09-29T06:23:58.392Z,5.56
2022-09-29T06:26:26.888Z,5.63
2022-09-29T06:28:54.284Z,5.67
2022-09-29T06:31:23.970Z,5.73
2022-09-29T06:33:51.298Z,5.74
2022-09-29T06:36:48.305Z,5.84
2022-09-29T06:39:15.503Z,5.97
2022-09-29T06:41:44.673Z,6.05
2022-09-29T06:44:11.642Z,6.08
2022-09-29T06:46:38.236Z,6.11
2022-09-29T06:49:04.800Z,6.17
2022-09-29T06:51:44.397Z,6.15
2022-09-29T06:54:17.404Z,6.16
2022-09-29T06:56:48.055Z,6.25
2022-09-29T06:59:14.695Z,6.29
2022-09-29T07:01:41.360Z,6.28
2022-09-29T07:04:08.035Z,6.29
2022-09-29T07:06:34.897Z,6.35
2022-09-29T07:09:01.610Z,6.46
2022-09-29T07:11:28.970Z,6.56
2022-09-29T07:13:55.964Z,6.66
2022-09-29T07:16:24.349Z,6.73
2022-09-29T07:18:51.898Z,6.81
2022-09-29T07:21:19.206Z,6.94
2022-09-29T07:23:47.050Z,7.10
2022-09-29T07:26:16.910Z,7.24
2022-09-29T07:28:44.714Z,7.32
2022-09-29T07:31:15.722Z,7.43
2022-09-29T07:33:43.881Z,7.60
2022-09-29T07:36:10.821Z,7.69
2022-09-29T07:38:37.582Z,7.68
2022-09-29T07:41:07.227Z,7.67
2022-09-29T07:43:37.454Z,7.67
2022-09-29T07:46:04.463Z,7.62
2022-09-29T07:48:32.521Z,7.60
2022-09-29T07:51:17.268Z,7.57
2022-09-29T07:53:44.544Z,7.53
2022-09-29T07:56:16.381Z,7.53
2022-09-29T07:58:42.927Z,7.49
2022-09-29T08:01:12.743Z,7.45
2022-09-29T08:03:40.799Z,7.43
2022-09-29T08:06:08.218Z,7.39
2022-09-29T08:08:37.233Z,7.34
2022-09-29T08:11:11.922Z,7.26
2022-09-29T08:13:41.213Z,7.28
2022-09-29T08:16:11.907Z,7.25
2022-09-29T08:18:38.968Z,7.30
2022-09-29T08:21:06.516Z,7.35
2022-09-29T08:23:38.130Z,7.43
2022-09-29T08:26:07.805Z,7.48
2022-09-29T08:28:36.932Z,7.53
2022-09-29T08:31:12.390Z,7.55
2022-09-29T08:33:39.166Z,7.61
2022-09-29T08:36:14.481Z,7.68
2022-09-29T08:38:46.125Z,7.74
2022-09-29T08:41:20.565Z,7.73
2022-09-29T08:43:50.982Z,7.74
2022-09-29T08:46:35.720Z,7.79
2022-09-29T08:49:11.058Z,7.83
2022-09-29T08:51:45.620Z,7.91
2022-09-29T08:54:38.518Z,7.93
2022-09-29T08:57:06.727Z,7.94
2022-09-29T08:59:33.485Z,7.99
2022-09-29T09:02:08.177Z,8.04
2022-09-29T09:04:47.893Z,8.20
2022-09-29T09:07:21.282Z,8.40
2022-09-29T09:10:00.378Z,8.46
2022-09-29T09:12:53.402Z,8.55
2022-09-29T09:15:49.018Z,8.61
2022-09-29T09:18:45.916Z,8.66
2022-09-29T09:21:36.583Z,8.84
2022-09-29T09:24:31.103Z,8.92
2022-09-29T09:26:58.963Z,8.89
2022-09-29T09:29:37.699Z,8.88
2022-09-29T09:32:10.137Z,8.95
2022-09-29T09:34:45.425Z,9.13
2022-09-29T09:37:21.514Z,9.21
2022-09-29T09:39:54.107Z,9.33
2022-09-29T09:42:25.984Z,9.33
2022-09-29T09:44:59.181Z,9.44
2022-09-29T09:47:34.273Z,9.29
2022-09-29T09:50:04.710Z,9.28
2022-09-29T09:52:41.923Z,9.43
2022-09-29T09:55:24.900Z,9.59
2022-09-29T09:58:28.592Z,9.79
2022-09-29T10:01:02.437Z,10.10
2022-09-29T10:03:29.859Z,10.36
2022-09-29T10:05:57.174Z,10.54
2022-09-29T10:08:29.645Z,10.69
2022-09-29T10:10:59.384Z,10.81
2022-09-29T10:13:29.093Z,10.86
2022-09-29T10:15:58.415Z,11.17
2022-09-29T10:18:32.279Z,11.53
2022-09-29T10:21:00.368Z,11.43
2022-09-29T10:23:33.173Z,11.42
2022-09-29T10:26:12.789Z,11.76
2022-09-29T10:28:47.506Z,11.95
2022-09-29T10:31:27.612Z,11.98
2022-09-29T10:34:22.521Z,12.23
2022-09-29T10:36:58.072Z,12.46
2022-09-29T10:39:40.444Z,12.63
2022-09-29T10:42:35.007Z,13.20
2022-09-29T10:45:12.431Z,13.59
2022-09-29T10:47:39.008Z,13.71
2022-09-29T10:50:24.943Z,13.79
2022-09-29T10:52:57.528Z,13.76
2022-09-29T10:55:33.500Z,13.54
2022-09-29T10:58:05.672Z,13.53
2022-09-29T11:00:38.360Z,13.77
2022-09-29T11:03:16.775Z,13.73
2022-09-29T11:05:58.636Z,14.45
2022-09-29T11:08:28.874Z,14.94
2022-09-29T11:11:04.612Z,15.77
2022-09-29T11:13:36.826Z,16.14
2022-09-29T11:16:06.894Z,16.93
2022-09-29T11:18:38.129Z,17.27
2022-09-29T11:21:21.657Z,16.33
2022-09-29T11:23:48.175Z,16.03
2022-09-29T11:26:24.606Z,15.80
2022-09-29T11:28:54.057Z,16.01
2022-09-29T11:31:52.718Z,15.39
2022-09-29T11:34:37.865Z,15.36
2022-09-29T11:37:24.355Z,14.98
2022-09-29T11:40:10.447Z,14.68
2022-09-29T11:43:19.334Z,14.57
2022-09-29T11:45:59.484Z,14.48
2022-09-29T11:49:00.960Z,14.15
2022-09-29T11:51:56.999Z,14.02
2022-09-29T11:54:56.435Z,13.94
2022-09-29T11:57:44.875Z,13.73
2022-09-29T12:00:13.119Z,13.69
2022-09-29T12:02:55.295Z,13.46
2022-09-29T12:05:35.291Z,13.23
2022-09-29T12:08:24.328Z,12.98
2022-09-29T12:11:00.135Z,12.88
2022-09-29T12:13:35.768Z,12.62
2022-09-29T12:16:04.077Z,12.43
2022-09-29T12:18:39.568Z,12.31
2022-09-29T12:21:09.483Z,12.10
2022-09-29T12:23:39.082Z,11.77
2022-09-29T12:26:20.630Z,11.67
2022-09-29T12:28:50.501Z,11.50
2022-09-29T12:31:25.533Z,11.59
2022-09-29T12:34:03.361Z,11.52
2022-09-29T12:36:43.999Z,11.45
2022-09-29T12:39:34.258Z,11.32
2022-09-29T12:42:13.998Z,11.46
2022-09-29T12:44:55.154Z,11.30
2022-09-29T12:47:33.879Z,11.36
2022-09-29T12:50:09.483Z,11.55
2022-09-29T12:52:49.478Z,11.70
2022-09-29T12:55:28.010Z,11.87
2022-09-29T12:58:00.372Z,11.93
2022-09-29T13:00:32.211Z,11.95
2022-09-29T13:03:39.844Z,11.94
2022-09-29T13:06:15.045Z,11.94
2022-09-29T13:09:09.387Z,11.94
2022-09-29T13:12:31.682Z,11.95
2022-09-29T13:15:26.463Z,12.04
2022-09-29T13:18:17.816Z,12.07
2022-09-29T13:21:03.475Z,12.14
2022-09-29T13:23:39.254Z,12.13
2022-09-29T13:26:24.060Z,12.13
2022-09-29T13:28:56.579Z,12.15
2022-09-29T13:31:33.751Z,12.21
2022-09-29T13:34:03.376Z,12.24
2022-09-29T13:36:39.148Z,12.30
2022-09-29T13:39:08.432Z,12.37
2022-09-29T13:41:39.621Z,12.44
2022-09-29T13:44:19.524Z,12.34
2022-09-29T13:46:46.312Z,12.42
2022-09-29T13:49:12.842Z,12.59
2022-09-29T13:52:05.487Z,12.79
2022-09-29T13:54:40.086Z,13.06
2022-09-29T13:57:12.703Z,13.04
2022-09-29T13:59:42.784Z,13.09
2022-09-29T14:02:20.179Z,13.33
2022-09-29T14:04:49.734Z,13.55
2022-09-29T14:07:57.132Z,13.95
2022-09-29T14:10:44.375Z,14.14
2022-09-29T14:13:10.890Z,13.94
2022-09-29T14:15:46.522Z,13.64
2022-09-29T14:18:28.500Z,13.96
2022-09-29T14:21:04.618Z,13.82
2022-09-29T14:24:00.548Z,13.58
2022-09-29T14:26:54.438Z,14.10
2022-09-29T14:29:27.547Z,14.44
2022-09-29T14:31:58.232Z,14.51
2022-09-29T14:34:30.129Z,14.27
2022-09-29T14:36:58.848Z,14.08
2022-09-29T14:39:27.628Z,14.07
2022-09-29T14:41:55.096Z,13.78
2022-09-29T14:44:48.676Z,13.63
2022-09-29T14:48:29.348Z,13.31
2022-09-29T14:51:28.477Z,13.22
2022-09-29T14:54:26.538Z,12.90
2022-09-29T14:57:33.116Z,12.84
2022-09-29T15:00:06.151Z,12.74
2022-09-29T15:02:38.239Z,12.65
2022-09-29T15:05:29.971Z,12.70
2022-09-29T15:08:00.131Z,12.51
2022-09-29T15:10:30.656Z,12.34
2022-09-29T15:13:25.121Z,12.33
2022-09-29T15:15:58.319Z,12.28
2022-09-29T15:18:39.971Z,12.25
2022-09-29T15:21:15.876Z,12.19
2022-09-29T15:23:48.383Z,12.14
2022-09-29T15:26:15.346Z,12.12
2022-09-29T15:28:43.614Z,12.13
2022-09-29T15:31:18.853Z,12.15
2022-09-29T15:33:46.648Z,12.17
2022-09-29T15:36:28.978Z,12.17
2022-09-29T15:39:13.137Z,12.15
2022-09-29T15:41:40.361Z,12.09
2022-09-29T15:44:18.154Z,12.01
2022-09-29T15:46:56.047Z,11.94
2022-09-29T15:49:24.099Z,11.88
2022-09-29T15:52:11.339Z,11.81
2022-09-29T15:54:44.678Z,11.76
2022-09-29T15:57:57.744Z,11.70
2022-09-29T16:00:24.381Z,11.63
2022-09-29T16:03:03.166Z,11.55
2022-09-29T16:05:40.062Z,11.48
2022-09-29T16:08:25.157Z,11.44
2022-09-29T16:10:55.028Z,11.41
2022-09-29T16:13:31.558Z,11.36
2022-09-29T16:16:05.250Z,11.30
2022-09-29T16:18:37.259Z,11.24
2022-09-29T16:21:10.270Z,11.14
2022-09-29T16:23:38.702Z,11.11
2022-09-29T16:26:18.420Z,11.05
2022-09-29T16:29:07.807Z,10.99
2022-09-29T16:31:35.879Z,10.92
2022-09-29T16:34:02.492Z,10.83
2022-09-29T16:36:36.925Z,10.77
2022-09-29T16:39:07.273Z,10.71
2022-09-29T16:41:39.136Z,10.64
2022-09-29T16:44:55.789Z,10.53
2022-09-29T16:47:28.714Z,10.44
2022-09-29T16:50:03.217Z,10.34
2022-09-29T16:52:41.286Z,10.25
2022-09-29T16:55:27.473Z,10.11
2022-09-29T16:57:56.981Z,10.01
2022-09-29T17:00:23.693Z,9.93
2022-09-29T17:02:55.474Z,9.92
2022-09-29T17:05:23.874Z,9.84
2022-09-29T17:07:52.149Z,9.76
2022-09-29T17:10:23.535Z,9.63
2022-09-29T17:12:50.166Z,9.51
2022-09-29T17:15:20.495Z,9.46
2022-09-29T17:17:48.986Z,9.37
2022-09-29T17:20:29.498Z,9.25
2022-09-29T17:22:56.877Z,9.18
2022-09-29T17:25:23.503Z,9.16
2022-09-29T17:28:08.508Z,9.11
2022-09-29T17:30:35.072Z,9.04
2022-09-29T17:33:01.652Z,8.97
2022-09-29T17:35:38.986Z,8.91
2022-09-29T17:38:09.327Z,8.84
2022-09-29T17:41:02.519Z,8.75
2022-09-29T17:43:31.698Z,8.72
2022-09-29T17:45:59.927Z,8.68
2022-09-29T17:48:28.246Z,8.63
2022-09-29T17:50:56.569Z,8.56
2022-09-29T17:53:24.439Z,8.53
2022-09-29T17:55:54.610Z,8.49
2022-09-29T17:58:22.841Z,8.45
2022-09-29T18:00:52.508Z,8.40
2022-09-29T18:03:20.855Z,8.36
2022-09-29T18:05:49.667Z,8.30
2022-09-29T18:08:18.188Z,8.24
2022-09-29T18:10:52.587Z,8.18
2022-09-29T18:13:20.056Z,8.13
2022-09-29T18:15:47.069Z,8.06
2022-09-29T18:18:20.643Z,8.01
2022-09-29T18:20:47.747Z,7.95
2022-09-29T18:23:17.963Z,7.87
2022-09-29T18:25:47.866Z,7.83
2022-09-29T18:28:15.737Z,7.79
2022-09-29T18:30:43.921Z,7.74
2022-09-29T18:33:15.715Z,7.70
2022-09-29T18:35:44.136Z,7.64
2022-09-29T18:38:10.962Z,7.54
2022-09-29T18:40:39.280Z,7.50
2022-09-29T18:43:06.460Z,7.47
2022-09-29T18:45:37.006Z,7.43
2022-09-29T18:48:06.384Z,7.36
2022-09-29T18:50:42.890Z,7.34
2022-09-29T18:53:14.138Z,7.28
2022-09-29T18:55:44.042Z,7.24
2022-09-29T18:58:13.966Z,7.14
2022-09-29T19:00:50.398Z,7.00
2022-09-29T19:03:24.059Z,6.96
2022-09-29T19:05:51.550Z,6.98
2022-09-29T19:08:19.022Z,6.94
2022-09-29T19:10:58.322Z,6.94
2022-09-29T19:13:25.264Z,6.92
2022-09-29T19:15:56.765Z,6.89
2022-09-29T19:18:24.300Z,6.85
2022-09-29T19:20:52.765Z,6.80
2022-09-29T19:23:19.610Z,6.68
2022-09-29T19:25:48.219Z,6.64
2022-09-29T19:28:16.640Z,6.61
2022-09-29T19:30:44.200Z,6.62
2022-09-29T19:33:14.701Z,6.56
2022-09-29T19:35:51.024Z,6.53
2022-09-29T19:38:18.906Z,6.47
2022-09-29T19:40:47.700Z,6.44
2022-09-29T19:43:14.502Z,6.43
2022-09-29T19:45:42.046Z,6.43
2022-09-29T19:48:18.402Z,6.38
2022-09-29T19:51:04.185Z,6.35
2022-09-29T19:53:31.404Z,6.33
2022-09-29T19:55:58.343Z,6.29
2022-09-29T19:58:25.330Z,6.25
2022-09-29T20:00:59.862Z,6.21
2022-09-29T20:03:29.845Z,6.15
2022-09-29T20:06:01.627Z,6.10
2022-09-29T20:08:29.241Z,6.06
2022-09-29T20:11:04.040Z,5.98
2022-09-29T20:13:30.580Z,5.97
2022-09-29T20:15:57.147Z,5.93
2022-09-29T20:18:25.057Z,5.90
2022-09-29T20:20:52.383Z,5.81
2022-09-29T20:23:19.363Z,5.80
2022-09-29T20:25:47.678Z,5.73
2022-09-29T20:28:15.543Z,5.73
2022-09-29T20:30:42.504Z,5.67
2022-09-29T20:33:09.005Z,5.62
2022-09-29T20:35:38.989Z,5.62
2022-09-29T20:38:05.509Z,5.60
2022-09-29T20:40:32.036Z,5.58
2022-09-29T20:42:58.631Z,5.54
2022-09-29T20:45:25.374Z,5.47
2022-09-29T20:47:51.869Z,5.46
2022-09-29T20:50:18.447Z,5.46
2022-09-29T20:52:53.299Z,5.41
2022-09-29T20:55:20.101Z,5.41
2022-09-29T20:57:47.268Z,5.37
2022-09-29T21:00:14.356Z,5.34
2022-09-29T21:02:40.950Z,5.29
2022-09-29T21:05:07.788Z,5.27
2022-09-29T21:07:38.145Z,5.26
2022-09-29T21:10:06.805Z,5.24
2022-09-29T21:12:34.144Z,5.09
2022-09-29T21:15:01.465Z,4.98
2022-09-29T21:17:30.627Z,4.95
2022-09-29T21:19:57.294Z,4.95
2022-09-29T21:22:27.518Z,4.92
2022-09-29T21:24:54.961Z,4.92
2022-09-29T21:27:21.499Z,4.92
2022-09-29T21:29:48.016Z,4.91
2022-09-29T21:32:14.610Z,4.89
2022-09-29T21:34:41.104Z,4.83
2022-09-29T21:37:07.614Z,4.82
2022-09-29T21:39:34.190Z,4.81
2022-09-29T21:42:00.705Z,4.78
2022-09-29T21:44:27.257Z,4.77
2022-09-29T21:46:53.987Z,4.76
2022-09-29T21:49:20.796Z,4.76
2022-09-29T21:51:49.638Z,4.72
2022-09-29T21:54:18.908Z,4.63
2022-09-29T21:56:46.844Z,4.58
2022-09-29T21:59:15.594Z,4.57
2022-09-29T22:01:43.285Z,4.58
2022-09-29T22:04:10.743Z,4.56
2022-09-29T22:06:39.248Z,4.53
2022-09-29T22:09:08.320Z,4.50
2022-09-29T22:11:38.766Z,4.48
2022-09-29T22:14:06.233Z,4.48
2022-09-29T22:16:34.816Z,4.47
2022-09-29T22:19:23.429Z,4.44
2022-09-29T22:21:50.419Z,4.41
2022-09-29T22:24:17.091Z,4.39
2022-09-29T22:26:44.175Z,4.34
2022-09-29T22:29:12.512Z,4.33
2022-09-29T22:31:40.424Z,4.27
2022-09-29T22:34:07.615Z,4.25
2022-09-29T22:36:35.216Z,4.25
2022-09-29T22:39:03.590Z,4.25
2022-09-29T22:41:30.640Z,4.22
2022-09-29T22:43:59.494Z,4.20
2022-09-29T22:46:30.034Z,4.19
2022-09-29T22:48:57.633Z,4.16
2022-09-29T22:51:26.520Z,4.17
2022-09-29T22:53:53.687Z,4.15
2022-09-29T22:56:22.234Z,4.10
2022-09-29T22:58:49.750Z,4.11
2022-09-29T23:01:18.244Z,4.04
2022-09-29T23:03:45.753Z,3.98
2022-09-29T23:06:13.810Z,3.98
2022-09-29T23:08:40.893Z,3.95
2022-09-29T23:11:08.480Z,3.94
2022-09-29T23:13:40.584Z,3.89
2022-09-29T23:16:12.319Z,3.83
2022-09-29T23:18:44.877Z,3.78
2022-09-29T23:21:20.248Z,3.80
2022-09-29T23:23:51.384Z,3.76
2022-09-29T23:26:18.166Z,3.76
2022-09-29T23:28:44.731Z,3.74
2022-09-29T23:31:11.666Z,3.73
2022-09-29T23:33:38.472Z,3.71
2022-09-29T23:36:12.689Z,3.70
2022-09-29T23:38:59.444Z,3.69
2022-09-29T23:41:30.210Z,3.67
2022-09-29T23:44:05.278Z,3.67
2022-09-29T23:46:34.297Z,3.66
2022-09-29T23:49:02.198Z,3.67
2022-09-29T23:51:32.661Z,3.63
2022-09-29T23:54:00.190Z,3.63
2022-09-29T23:56:27.567Z,3.60
2022-09-29T23:58:54.231Z,3.56
